sensor_id;sensor_type;location;lat;lon;timestamp;P1;durP1;ratioP1;P2;durP2;ratioP2
69260;SDS011;56378;52.404;20.816;2024-01-25T00:01:10;8.73;;;1.70;;
69260;SDS011;56378;52.404;20.816;2024-01-25T00:03:35;11.98;;;2.20;;
69260;SDS011;56378;52.404;20.816;2024-01-25T00:06:01;12.60;;;1.73;;
69260;SDS011;56378;52.404;20.816;2024-01-25T00:08:27;10.82;;;1.98;;
69260;SDS011;56378;52.404;20.816;2024-01-25T00:10:53;10.63;;;2.20;;
69260;SDS011;56378;52.404;20.816;2024-01-25T00:13:18;10.33;;;1.70;;
69260;SDS011;56378;52.404;20.816;2024-01-25T00:15:44;10.05;;;1.60;;
69260;SDS011;56378;52.404;20.816;2024-01-25T00:18:10;9.17;;;1.50;;
69260;SDS011;56378;52.404;20.816;2024-01-25T00:20:36;8.40;;;1.52;;
69260;SDS011;56378;52.404;20.816;2024-01-25T00:23:01;8.37;;;1.53;;
69260;SDS011;56378;52.404;20.816;2024-01-25T00:25:27;6.78;;;1.40;;
69260;SDS011;56378;52.404;20.816;2024-01-25T00:27:53;5.77;;;1.20;;
69260;SDS011;56378;52.404;20.816;2024-01-25T00:30:19;4.88;;;1.00;;
69260;SDS011;56378;52.404;20.816;2024-01-25T00:32:44;7.30;;;1.20;;
69260;SDS011;56378;52.404;20.816;2024-01-25T00:35:10;7.82;;;1.00;;
69260;SDS011;56378;52.404;20.816;2024-01-25T00:37:39;9.98;;;1.15;;
69260;SDS011;56378;52.404;20.816;2024-01-25T00:40:05;8.67;;;1.40;;
69260;SDS011;56378;52.404;20.816;2024-01-25T00:42:51;6.30;;;1.40;;
69260;SDS011;56378;52.404;20.816;2024-01-25T00:45:20;4.22;;;1.05;;
69260;SDS011;56378;52.404;20.816;2024-01-25T00:47:47;9.50;;;1.00;;
69260;SDS011;56378;52.404;20.816;2024-01-25T00:50:14;8.25;;;1.00;;
69260;SDS011;56378;52.404;20.816;2024-01-25T00:52:42;7.30;;;1.10;;
69260;SDS011;56378;52.404;20.816;2024-01-25T00:55:09;5.30;;;1.13;;
69260;SDS011;56378;52.404;20.816;2024-01-25T00:57:35;8.38;;;1.98;;
69260;SDS011;56378;52.404;20.816;2024-01-25T01:00:01;8.63;;;1.15;;
69260;SDS011;56378;52.404;20.816;2024-01-25T01:02:29;6.77;;;1.00;;
69260;SDS011;56378;52.404;20.816;2024-01-25T01:04:59;6.53;;;1.10;;
69260;SDS011;56378;52.404;20.816;2024-01-25T01:07:25;6.95;;;1.20;;
69260;SDS011;56378;52.404;20.816;2024-01-25T01:09:51;7.10;;;1.20;;
69260;SDS011;56378;52.404;20.816;2024-01-25T01:12:17;9.43;;;1.47;;
69260;SDS011;56378;52.404;20.816;2024-01-25T01:14:42;7.25;;;1.35;;
69260;SDS011;56378;52.404;20.816;2024-01-25T01:17:08;8.57;;;1.47;;
69260;SDS011;56378;52.404;20.816;2024-01-25T01:19:34;8.02;;;1.05;;
69260;SDS011;56378;52.404;20.816;2024-01-25T01:22:00;7.40;;;1.40;;
69260;SDS011;56378;52.404;20.816;2024-01-25T01:24:25;9.82;;;1.65;;
69260;SDS011;56378;52.404;20.816;2024-01-25T01:26:51;7.90;;;1.47;;
69260;SDS011;56378;52.404;20.816;2024-01-25T01:29:17;8.63;;;1.50;;
69260;SDS011;56378;52.404;20.816;2024-01-25T01:31:43;10.40;;;1.30;;
69260;SDS011;56378;52.404;20.816;2024-01-25T01:34:09;6.93;;;1.10;;
69260;SDS011;56378;52.404;20.816;2024-01-25T01:36:35;7.38;;;1.67;;
69260;SDS011;56378;52.404;20.816;2024-01-25T01:39:00;8.37;;;1.57;;
69260;SDS011;56378;52.404;20.816;2024-01-25T01:41:26;7.25;;;1.50;;
69260;SDS011;56378;52.404;20.816;2024-01-25T01:43:52;8.93;;;1.60;;
69260;SDS011;56378;52.404;20.816;2024-01-25T01:46:37;6.28;;;1.38;;
69260;SDS011;56378;52.404;20.816;2024-01-25T01:49:05;11.13;;;1.85;;
69260;SDS011;56378;52.404;20.816;2024-01-25T01:51:34;10.73;;;2.03;;
69260;SDS011;56378;52.404;20.816;2024-01-25T01:54:00;12.82;;;1.55;;
69260;SDS011;56378;52.404;20.816;2024-01-25T01:56:27;12.18;;;1.45;;
69260;SDS011;56378;52.404;20.816;2024-01-25T01:58:55;8.45;;;1.30;;
69260;SDS011;56378;52.404;20.816;2024-01-25T02:01:24;10.68;;;1.35;;
69260;SDS011;56378;52.404;20.816;2024-01-25T02:03:51;11.85;;;1.80;;
69260;SDS011;56378;52.404;20.816;2024-01-25T02:06:17;12.20;;;1.88;;
69260;SDS011;56378;52.404;20.816;2024-01-25T02:08:44;9.27;;;2.20;;
69260;SDS011;56378;52.404;20.816;2024-01-25T02:11:14;11.75;;;1.92;;
69260;SDS011;56378;52.404;20.816;2024-01-25T02:13:40;10.77;;;1.80;;
69260;SDS011;56378;52.404;20.816;2024-01-25T02:16:06;11.53;;;1.80;;
69260;SDS011;56378;52.404;20.816;2024-01-25T02:18:33;12.35;;;1.73;;
69260;SDS011;56378;52.404;20.816;2024-01-25T02:20:58;9.15;;;1.92;;
69260;SDS011;56378;52.404;20.816;2024-01-25T02:23:24;9.13;;;1.67;;
69260;SDS011;56378;52.404;20.816;2024-01-25T02:25:50;18.17;;;3.03;;
69260;SDS011;56378;52.404;20.816;2024-01-25T02:28:16;10.52;;;2.22;;
69260;SDS011;56378;52.404;20.816;2024-01-25T02:30:42;9.67;;;2.23;;
69260;SDS011;56378;52.404;20.816;2024-01-25T02:33:07;10.57;;;1.95;;
69260;SDS011;56378;52.404;20.816;2024-01-25T02:35:33;9.98;;;2.08;;
69260;SDS011;56378;52.404;20.816;2024-01-25T02:37:59;11.20;;;2.07;;
69260;SDS011;56378;52.404;20.816;2024-01-25T02:40:25;10.23;;;2.03;;
69260;SDS011;56378;52.404;20.816;2024-01-25T02:42:50;16.23;;;1.93;;
69260;SDS011;56378;52.404;20.816;2024-01-25T02:45:16;19.30;;;2.40;;
69260;SDS011;56378;52.404;20.816;2024-01-25T02:47:42;10.70;;;2.20;;
69260;SDS011;56378;52.404;20.816;2024-01-25T02:50:08;10.35;;;1.85;;
69260;SDS011;56378;52.404;20.816;2024-01-25T02:52:34;10.63;;;2.05;;
69260;SDS011;56378;52.404;20.816;2024-01-25T02:55:00;13.57;;;2.10;;
69260;SDS011;56378;52.404;20.816;2024-01-25T02:57:25;9.03;;;1.93;;
69260;SDS011;56378;52.404;20.816;2024-01-25T02:59:51;7.93;;;1.95;;
69260;SDS011;56378;52.404;20.816;2024-01-25T03:02:17;9.57;;;1.80;;
69260;SDS011;56378;52.404;20.816;2024-01-25T03:04:44;13.27;;;1.60;;
69260;SDS011;56378;52.404;20.816;2024-01-25T03:07:11;10.50;;;1.50;;
69260;SDS011;56378;52.404;20.816;2024-01-25T03:09:36;9.65;;;1.65;;
69260;SDS011;56378;52.404;20.816;2024-01-25T03:12:02;11.23;;;2.07;;
69260;SDS011;56378;52.404;20.816;2024-01-25T03:14:28;9.88;;;1.67;;
69260;SDS011;56378;52.404;20.816;2024-01-25T03:16:54;9.53;;;1.93;;
69260;SDS011;56378;52.404;20.816;2024-01-25T03:19:19;10.50;;;1.95;;
69260;SDS011;56378;52.404;20.816;2024-01-25T03:21:45;11.80;;;2.07;;
69260;SDS011;56378;52.404;20.816;2024-01-25T03:24:11;10.13;;;2.03;;
69260;SDS011;56378;52.404;20.816;2024-01-25T03:26:36;10.00;;;2.07;;
69260;SDS011;56378;52.404;20.816;2024-01-25T03:29:02;15.63;;;2.45;;
69260;SDS011;56378;52.404;20.816;2024-01-25T03:31:28;9.73;;;2.10;;
69260;SDS011;56378;52.404;20.816;2024-01-25T03:33:54;13.55;;;2.22;;
69260;SDS011;56378;52.404;20.816;2024-01-25T03:36:19;8.17;;;2.07;;
69260;SDS011;56378;52.404;20.816;2024-01-25T03:38:45;13.02;;;2.13;;
69260;SDS011;56378;52.404;20.816;2024-01-25T03:41:11;9.53;;;1.73;;
69260;SDS011;56378;52.404;20.816;2024-01-25T03:43:36;11.80;;;1.90;;
69260;SDS011;56378;52.404;20.816;2024-01-25T03:46:02;12.33;;;1.97;;
69260;SDS011;56378;52.404;20.816;2024-01-25T03:48:28;10.00;;;2.35;;
69260;SDS011;56378;52.404;20.816;2024-01-25T03:50:54;12.30;;;2.43;;
69260;SDS011;56378;52.404;20.816;2024-01-25T03:53:22;11.88;;;1.90;;
69260;SDS011;56378;52.404;20.816;2024-01-25T03:55:48;9.35;;;1.90;;
69260;SDS011;56378;52.404;20.816;2024-01-25T03:58:14;8.93;;;1.90;;
69260;SDS011;56378;52.404;20.816;2024-01-25T04:00:41;17.15;;;2.50;;
69260;SDS011;56378;52.404;20.816;2024-01-25T04:03:07;11.02;;;2.25;;
69260;SDS011;56378;52.404;20.816;2024-01-25T04:05:33;9.02;;;2.08;;
69260;SDS011;56378;52.404;20.816;2024-01-25T04:07:59;11.95;;;2.10;;
69260;SDS011;56378;52.404;20.816;2024-01-25T04:10:24;12.47;;;2.00;;
69260;SDS011;56378;52.404;20.816;2024-01-25T04:12:50;11.77;;;2.03;;
69260;SDS011;56378;52.404;20.816;2024-01-25T04:15:16;9.93;;;1.63;;
69260;SDS011;56378;52.404;20.816;2024-01-25T04:17:42;15.10;;;2.33;;
69260;SDS011;56378;52.404;20.816;2024-01-25T04:20:07;12.73;;;2.67;;
69260;SDS011;56378;52.404;20.816;2024-01-25T04:22:34;13.52;;;2.10;;
69260;SDS011;56378;52.404;20.816;2024-01-25T04:25:01;13.68;;;2.55;;
69260;SDS011;56378;52.404;20.816;2024-01-25T04:27:26;12.13;;;2.33;;
69260;SDS011;56378;52.404;20.816;2024-01-25T04:29:52;12.38;;;2.00;;
69260;SDS011;56378;52.404;20.816;2024-01-25T04:32:18;11.30;;;2.63;;
69260;SDS011;56378;52.404;20.816;2024-01-25T04:34:43;10.98;;;2.45;;
69260;SDS011;56378;52.404;20.816;2024-01-25T04:37:11;17.90;;;2.60;;
69260;SDS011;56378;52.404;20.816;2024-01-25T04:39:36;15.43;;;2.50;;
69260;SDS011;56378;52.404;20.816;2024-01-25T04:42:02;11.00;;;1.87;;
69260;SDS011;56378;52.404;20.816;2024-01-25T04:44:28;14.95;;;2.05;;
69260;SDS011;56378;52.404;20.816;2024-01-25T04:46:54;9.47;;;1.80;;
69260;SDS011;56378;52.404;20.816;2024-01-25T04:49:19;13.13;;;2.53;;
69260;SDS011;56378;52.404;20.816;2024-01-25T04:51:45;15.45;;;2.25;;
69260;SDS011;56378;52.404;20.816;2024-01-25T04:54:11;10.30;;;2.23;;
69260;SDS011;56378;52.404;20.816;2024-01-25T04:56:38;11.00;;;2.00;;
69260;SDS011;56378;52.404;20.816;2024-01-25T04:59:03;12.27;;;2.28;;
69260;SDS011;56378;52.404;20.816;2024-01-25T05:01:29;11.10;;;2.13;;
69260;SDS011;56378;52.404;20.816;2024-01-25T05:03:55;10.20;;;2.03;;
69260;SDS011;56378;52.404;20.816;2024-01-25T05:06:20;9.85;;;1.98;;
69260;SDS011;56378;52.404;20.816;2024-01-25T05:08:46;8.37;;;1.63;;
69260;SDS011;56378;52.404;20.816;2024-01-25T05:11:12;11.15;;;2.15;;
69260;SDS011;56378;52.404;20.816;2024-01-25T05:13:37;11.73;;;2.10;;
69260;SDS011;56378;52.404;20.816;2024-01-25T05:16:03;16.10;;;3.92;;
69260;SDS011;56378;52.404;20.816;2024-01-25T05:18:29;12.63;;;2.60;;
69260;SDS011;56378;52.404;20.816;2024-01-25T05:20:55;12.02;;;2.65;;
69260;SDS011;56378;52.404;20.816;2024-01-25T05:23:20;12.63;;;2.40;;
69260;SDS011;56378;52.404;20.816;2024-01-25T05:25:46;9.35;;;2.03;;
69260;SDS011;56378;52.404;20.816;2024-01-25T05:28:12;10.97;;;2.00;;
69260;SDS011;56378;52.404;20.816;2024-01-25T05:30:37;12.02;;;1.95;;
69260;SDS011;56378;52.404;20.816;2024-01-25T05:33:03;10.10;;;1.80;;
69260;SDS011;56378;52.404;20.816;2024-01-25T05:35:29;9.55;;;1.85;;
69260;SDS011;56378;52.404;20.816;2024-01-25T05:37:54;9.93;;;1.90;;
69260;SDS011;56378;52.404;20.816;2024-01-25T05:40:20;13.57;;;2.20;;
69260;SDS011;56378;52.404;20.816;2024-01-25T05:42:46;8.67;;;1.90;;
69260;SDS011;56378;52.404;20.816;2024-01-25T05:45:11;10.80;;;2.10;;
69260;SDS011;56378;52.404;20.816;2024-01-25T05:47:37;7.50;;;1.70;;
69260;SDS011;56378;52.404;20.816;2024-01-25T05:50:03;11.48;;;1.90;;
69260;SDS011;56378;52.404;20.816;2024-01-25T05:52:30;13.93;;;2.10;;
69260;SDS011;56378;52.404;20.816;2024-01-25T05:54:55;10.15;;;1.67;;
69260;SDS011;56378;52.404;20.816;2024-01-25T05:57:21;9.57;;;1.98;;
69260;SDS011;56378;52.404;20.816;2024-01-25T05:59:47;11.53;;;2.17;;
69260;SDS011;56378;52.404;20.816;2024-01-25T06:02:13;13.38;;;2.50;;
69260;SDS011;56378;52.404;20.816;2024-01-25T06:04:39;10.68;;;2.08;;
69260;SDS011;56378;52.404;20.816;2024-01-25T06:07:05;12.25;;;2.20;;
69260;SDS011;56378;52.404;20.816;2024-01-25T06:09:30;9.20;;;1.70;;
69260;SDS011;56378;52.404;20.816;2024-01-25T06:11:57;11.15;;;2.03;;
69260;SDS011;56378;52.404;20.816;2024-01-25T06:14:23;7.75;;;2.10;;
69260;SDS011;56378;52.404;20.816;2024-01-25T06:16:49;7.57;;;1.80;;
69260;SDS011;56378;52.404;20.816;2024-01-25T06:19:14;7.83;;;1.67;;
69260;SDS011;56378;52.404;20.816;2024-01-25T06:21:40;8.90;;;2.25;;
69260;SDS011;56378;52.404;20.816;2024-01-25T06:24:06;8.67;;;1.57;;
69260;SDS011;56378;52.404;20.816;2024-01-25T06:26:32;10.95;;;2.00;;
69260;SDS011;56378;52.404;20.816;2024-01-25T06:28:58;9.77;;;1.70;;
69260;SDS011;56378;52.404;20.816;2024-01-25T06:31:24;10.90;;;1.90;;
69260;SDS011;56378;52.404;20.816;2024-01-25T06:33:51;8.65;;;2.00;;
69260;SDS011;56378;52.404;20.816;2024-01-25T06:36:18;7.78;;;1.38;;
69260;SDS011;56378;52.404;20.816;2024-01-25T06:38:47;9.95;;;1.90;;
69260;SDS011;56378;52.404;20.816;2024-01-25T06:41:13;11.77;;;1.83;;
69260;SDS011;56378;52.404;20.816;2024-01-25T06:43:41;10.40;;;1.80;;
69260;SDS011;56378;52.404;20.816;2024-01-25T06:46:07;4.97;;;1.30;;
69260;SDS011;56378;52.404;20.816;2024-01-25T06:48:33;13.73;;;1.92;;
69260;SDS011;56378;52.404;20.816;2024-01-25T06:50:59;7.13;;;1.75;;
69260;SDS011;56378;52.404;20.816;2024-01-25T06:53:26;13.35;;;2.03;;
69260;SDS011;56378;52.404;20.816;2024-01-25T06:55:52;10.60;;;2.03;;
69260;SDS011;56378;52.404;20.816;2024-01-25T06:58:17;11.60;;;1.92;;
69260;SDS011;56378;52.404;20.816;2024-01-25T07:00:43;8.20;;;1.90;;
69260;SDS011;56378;52.404;20.816;2024-01-25T07:03:10;10.30;;;1.98;;
69260;SDS011;56378;52.404;20.816;2024-01-25T07:05:36;10.63;;;2.45;;
69260;SDS011;56378;52.404;20.816;2024-01-25T07:08:02;10.43;;;2.43;;
69260;SDS011;56378;52.404;20.816;2024-01-25T07:10:28;11.32;;;2.63;;
69260;SDS011;56378;52.404;20.816;2024-01-25T07:12:53;11.25;;;2.90;;
69260;SDS011;56378;52.404;20.816;2024-01-25T07:15:19;9.73;;;2.55;;
69260;SDS011;56378;52.404;20.816;2024-01-25T07:17:45;8.40;;;2.05;;
69260;SDS011;56378;52.404;20.816;2024-01-25T07:20:12;10.67;;;2.60;;
69260;SDS011;56378;52.404;20.816;2024-01-25T07:22:37;10.98;;;2.70;;
69260;SDS011;56378;52.404;20.816;2024-01-25T07:25:04;14.77;;;2.67;;
69260;SDS011;56378;52.404;20.816;2024-01-25T07:27:30;11.30;;;3.13;;
69260;SDS011;56378;52.404;20.816;2024-01-25T07:29:55;10.43;;;2.70;;
69260;SDS011;56378;52.404;20.816;2024-01-25T07:32:21;11.20;;;2.20;;
69260;SDS011;56378;52.404;20.816;2024-01-25T07:34:49;7.33;;;1.97;;
69260;SDS011;56378;52.404;20.816;2024-01-25T07:37:15;7.32;;;1.92;;
69260;SDS011;56378;52.404;20.816;2024-01-25T07:39:41;7.82;;;2.00;;
69260;SDS011;56378;52.404;20.816;2024-01-25T07:42:06;7.80;;;2.03;;
69260;SDS011;56378;52.404;20.816;2024-01-25T07:44:32;7.47;;;1.98;;
69260;SDS011;56378;52.404;20.816;2024-01-25T07:46:58;6.10;;;1.60;;
69260;SDS011;56378;52.404;20.816;2024-01-25T07:49:24;5.90;;;1.95;;
69260;SDS011;56378;52.404;20.816;2024-01-25T07:51:50;7.13;;;1.80;;
69260;SDS011;56378;52.404;20.816;2024-01-25T07:54:16;6.07;;;2.17;;
69260;SDS011;56378;52.404;20.816;2024-01-25T07:56:42;8.50;;;2.38;;
69260;SDS011;56378;52.404;20.816;2024-01-25T07:59:07;6.60;;;2.40;;
69260;SDS011;56378;52.404;20.816;2024-01-25T08:01:33;6.72;;;2.10;;
69260;SDS011;56378;52.404;20.816;2024-01-25T08:03:59;6.87;;;1.87;;
69260;SDS011;56378;52.404;20.816;2024-01-25T08:06:25;5.13;;;1.60;;
69260;SDS011;56378;52.404;20.816;2024-01-25T08:08:53;7.15;;;1.90;;
69260;SDS011;56378;52.404;20.816;2024-01-25T08:11:19;6.97;;;1.90;;
69260;SDS011;56378;52.404;20.816;2024-01-25T08:13:46;6.03;;;2.00;;
69260;SDS011;56378;52.404;20.816;2024-01-25T08:16:14;6.20;;;1.65;;
69260;SDS011;56378;52.404;20.816;2024-01-25T08:18:44;6.28;;;1.88;;
69260;SDS011;56378;52.404;20.816;2024-01-25T08:21:13;5.90;;;2.60;;
69260;SDS011;56378;52.404;20.816;2024-01-25T08:23:40;6.97;;;2.03;;
69260;SDS011;56378;52.404;20.816;2024-01-25T08:26:06;4.18;;;1.92;;
69260;SDS011;56378;52.404;20.816;2024-01-25T08:28:38;5.68;;;1.60;;
69260;SDS011;56378;52.404;20.816;2024-01-25T08:31:10;5.28;;;1.67;;
69260;SDS011;56378;52.404;20.816;2024-01-25T08:33:36;9.30;;;2.70;;
69260;SDS011;56378;52.404;20.816;2024-01-25T08:36:03;6.13;;;1.90;;
69260;SDS011;56378;52.404;20.816;2024-01-25T08:38:29;4.30;;;1.80;;
69260;SDS011;56378;52.404;20.816;2024-01-25T08:40:55;5.17;;;1.50;;
69260;SDS011;56378;52.404;20.816;2024-01-25T08:43:21;6.55;;;1.83;;
69260;SDS011;56378;52.404;20.816;2024-01-25T08:45:47;5.95;;;1.80;;
69260;SDS011;56378;52.404;20.816;2024-01-25T08:48:12;6.20;;;1.70;;
69260;SDS011;56378;52.404;20.816;2024-01-25T08:50:38;6.45;;;2.20;;
69260;SDS011;56378;52.404;20.816;2024-01-25T08:53:04;2.93;;;1.30;;
69260;SDS011;56378;52.404;20.816;2024-01-25T08:55:30;4.95;;;1.35;;
69260;SDS011;56378;52.404;20.816;2024-01-25T08:57:56;4.82;;;1.30;;
69260;SDS011;56378;52.404;20.816;2024-01-25T09:00:22;3.90;;;1.53;;
69260;SDS011;56378;52.404;20.816;2024-01-25T09:02:48;5.18;;;1.70;;
69260;SDS011;56378;52.404;20.816;2024-01-25T09:05:13;4.37;;;1.47;;
69260;SDS011;56378;52.404;20.816;2024-01-25T09:07:39;5.82;;;1.88;;
69260;SDS011;56378;52.404;20.816;2024-01-25T09:10:06;5.90;;;1.70;;
69260;SDS011;56378;52.404;20.816;2024-01-25T09:12:33;4.20;;;1.50;;
69260;SDS011;56378;52.404;20.816;2024-01-25T09:15:00;5.43;;;1.80;;
69260;SDS011;56378;52.404;20.816;2024-01-25T09:17:25;5.43;;;2.00;;
69260;SDS011;56378;52.404;20.816;2024-01-25T09:19:51;7.68;;;1.85;;
69260;SDS011;56378;52.404;20.816;2024-01-25T09:22:17;6.38;;;1.70;;
69260;SDS011;56378;52.404;20.816;2024-01-25T09:24:45;6.57;;;1.80;;
69260;SDS011;56378;52.404;20.816;2024-01-25T09:27:11;5.40;;;1.80;;
69260;SDS011;56378;52.404;20.816;2024-01-25T09:29:38;4.63;;;1.30;;
69260;SDS011;56378;52.404;20.816;2024-01-25T09:32:05;6.22;;;1.88;;
69260;SDS011;56378;52.404;20.816;2024-01-25T09:34:33;4.68;;;1.40;;
69260;SDS011;56378;52.404;20.816;2024-01-25T09:37:03;5.22;;;1.60;;
69260;SDS011;56378;52.404;20.816;2024-01-25T09:39:31;5.65;;;1.60;;
69260;SDS011;56378;52.404;20.816;2024-01-25T09:41:57;4.87;;;1.53;;
69260;SDS011;56378;52.404;20.816;2024-01-25T09:44:23;2.78;;;0.93;;
69260;SDS011;56378;52.404;20.816;2024-01-25T09:46:49;5.88;;;1.45;;
69260;SDS011;56378;52.404;20.816;2024-01-25T09:49:16;3.05;;;1.20;;
69260;SDS011;56378;52.404;20.816;2024-01-25T09:51:42;4.20;;;1.33;;
69260;SDS011;56378;52.404;20.816;2024-01-25T09:54:08;5.68;;;1.50;;
69260;SDS011;56378;52.404;20.816;2024-01-25T09:56:35;3.40;;;1.20;;
69260;SDS011;56378;52.404;20.816;2024-01-25T09:59:01;4.13;;;1.23;;
69260;SDS011;56378;52.404;20.816;2024-01-25T10:01:29;5.17;;;1.20;;
69260;SDS011;56378;52.404;20.816;2024-01-25T10:03:55;3.38;;;1.02;;
69260;SDS011;56378;52.404;20.816;2024-01-25T10:06:21;8.00;;;1.55;;
69260;SDS011;56378;52.404;20.816;2024-01-25T10:08:47;4.07;;;1.13;;
69260;SDS011;56378;52.404;20.816;2024-01-25T10:11:13;3.60;;;0.95;;
69260;SDS011;56378;52.404;20.816;2024-01-25T10:13:43;3.97;;;1.10;;
69260;SDS011;56378;52.404;20.816;2024-01-25T10:16:16;3.60;;;1.08;;
69260;SDS011;56378;52.404;20.816;2024-01-25T10:18:43;3.83;;;1.30;;
69260;SDS011;56378;52.404;20.816;2024-01-25T10:21:14;4.70;;;1.47;;
69260;SDS011;56378;52.404;20.816;2024-01-25T10:23:43;5.55;;;1.60;;
69260;SDS011;56378;52.404;20.816;2024-01-25T10:26:11;3.53;;;1.20;;
69260;SDS011;56378;52.404;20.816;2024-01-25T10:28:36;4.88;;;1.15;;
69260;SDS011;56378;52.404;20.816;2024-01-25T10:31:02;4.80;;;1.47;;
69260;SDS011;56378;52.404;20.816;2024-01-25T10:33:32;4.65;;;1.10;;
69260;SDS011;56378;52.404;20.816;2024-01-25T10:36:02;6.38;;;1.40;;
69260;SDS011;56378;52.404;20.816;2024-01-25T10:38:32;8.03;;;2.23;;
69260;SDS011;56378;52.404;20.816;2024-01-25T10:41:00;9.90;;;2.33;;
69260;SDS011;56378;52.404;20.816;2024-01-25T10:43:27;4.28;;;1.20;;
69260;SDS011;56378;52.404;20.816;2024-01-25T10:45:55;4.45;;;1.17;;
69260;SDS011;56378;52.404;20.816;2024-01-25T10:48:23;4.10;;;1.23;;
69260;SDS011;56378;52.404;20.816;2024-01-25T10:50:53;4.57;;;1.20;;
69260;SDS011;56378;52.404;20.816;2024-01-25T10:53:19;5.57;;;1.20;;
69260;SDS011;56378;52.404;20.816;2024-01-25T10:55:46;2.58;;;1.00;;
69260;SDS011;56378;52.404;20.816;2024-01-25T10:58:13;3.72;;;1.00;;
69260;SDS011;56378;52.404;20.816;2024-01-25T11:00:39;4.63;;;1.00;;
69260;SDS011;56378;52.404;20.816;2024-01-25T11:03:08;4.47;;;1.20;;
69260;SDS011;56378;52.404;20.816;2024-01-25T11:05:34;5.78;;;1.10;;
69260;SDS011;56378;52.404;20.816;2024-01-25T11:08:01;3.95;;;0.90;;
69260;SDS011;56378;52.404;20.816;2024-01-25T11:10:27;3.50;;;1.00;;
69260;SDS011;56378;52.404;20.816;2024-01-25T11:13:00;4.80;;;1.08;;
69260;SDS011;56378;52.404;20.816;2024-01-25T11:18:02;3.72;;;1.08;;
69260;SDS011;56378;52.404;20.816;2024-01-25T11:20:31;3.53;;;1.03;;
69260;SDS011;56378;52.404;20.816;2024-01-25T11:22:59;2.45;;;0.80;;
69260;SDS011;56378;52.404;20.816;2024-01-25T11:25:30;4.63;;;1.08;;
69260;SDS011;56378;52.404;20.816;2024-01-25T11:27:57;3.53;;;1.00;;
69260;SDS011;56378;52.404;20.816;2024-01-25T11:30:25;4.32;;;0.80;;
69260;SDS011;56378;52.404;20.816;2024-01-25T11:32:51;2.67;;;0.80;;
69260;SDS011;56378;52.404;20.816;2024-01-25T11:35:17;3.92;;;0.90;;
69260;SDS011;56378;52.404;20.816;2024-01-25T11:37:46;4.32;;;1.15;;
69260;SDS011;56378;52.404;20.816;2024-01-25T11:40:13;3.15;;;1.00;;
69260;SDS011;56378;52.404;20.816;2024-01-25T11:42:41;2.60;;;0.97;;
69260;SDS011;56378;52.404;20.816;2024-01-25T11:45:09;6.75;;;1.15;;
69260;SDS011;56378;52.404;20.816;2024-01-25T11:47:36;3.90;;;1.15;;
69260;SDS011;56378;52.404;20.816;2024-01-25T11:50:03;4.68;;;1.40;;
69260;SDS011;56378;52.404;20.816;2024-01-25T11:52:33;4.85;;;1.27;;
69260;SDS011;56378;52.404;20.816;2024-01-25T11:55:03;5.63;;;1.43;;
69260;SDS011;56378;52.404;20.816;2024-01-25T11:57:42;4.30;;;1.55;;
69260;SDS011;56378;52.404;20.816;2024-01-25T12:00:09;4.00;;;1.38;;
69260;SDS011;56378;52.404;20.816;2024-01-25T12:02:38;5.15;;;1.80;;
69260;SDS011;56378;52.404;20.816;2024-01-25T12:05:05;4.93;;;1.73;;
69260;SDS011;56378;52.404;20.816;2024-01-25T12:07:31;5.90;;;2.40;;
69260;SDS011;56378;52.404;20.816;2024-01-25T12:10:04;4.28;;;2.05;;
69260;SDS011;56378;52.404;20.816;2024-01-25T12:12:32;5.40;;;1.95;;
69260;SDS011;56378;52.404;20.816;2024-01-25T12:15:00;4.93;;;1.75;;
69260;SDS011;56378;52.404;20.816;2024-01-25T12:17:28;3.30;;;1.58;;
69260;SDS011;56378;52.404;20.816;2024-01-25T12:19:58;3.70;;;1.05;;
69260;SDS011;56378;52.404;20.816;2024-01-25T12:22:28;2.80;;;0.77;;
69260;SDS011;56378;52.404;20.816;2024-01-25T12:24:55;2.10;;;0.70;;
69260;SDS011;56378;52.404;20.816;2024-01-25T12:27:24;3.15;;;0.70;;
69260;SDS011;56378;52.404;20.816;2024-01-25T12:29:50;3.40;;;1.10;;
69260;SDS011;56378;52.404;20.816;2024-01-25T12:32:19;2.33;;;0.90;;
69260;SDS011;56378;52.404;20.816;2024-01-25T12:34:52;2.47;;;0.90;;
69260;SDS011;56378;52.404;20.816;2024-01-25T12:37:22;2.60;;;0.90;;
69260;SDS011;56378;52.404;20.816;2024-01-25T12:39:48;3.40;;;0.80;;
69260;SDS011;56378;52.404;20.816;2024-01-25T12:42:15;2.50;;;0.90;;
69260;SDS011;56378;52.404;20.816;2024-01-25T12:44:41;3.33;;;0.98;;
69260;SDS011;56378;52.404;20.816;2024-01-25T12:47:06;2.13;;;1.00;;
69260;SDS011;56378;52.404;20.816;2024-01-25T12:49:32;2.65;;;0.90;;
69260;SDS011;56378;52.404;20.816;2024-01-25T12:51:58;3.25;;;1.20;;
69260;SDS011;56378;52.404;20.816;2024-01-25T12:54:24;3.70;;;1.20;;
69260;SDS011;56378;52.404;20.816;2024-01-25T12:56:50;2.05;;;1.00;;
69260;SDS011;56378;52.404;20.816;2024-01-25T12:59:16;3.20;;;1.17;;
69260;SDS011;56378;52.404;20.816;2024-01-25T13:01:42;4.80;;;1.07;;
69260;SDS011;56378;52.404;20.816;2024-01-25T13:04:07;2.85;;;1.10;;
69260;SDS011;56378;52.404;20.816;2024-01-25T13:06:33;2.87;;;1.00;;
69260;SDS011;56378;52.404;20.816;2024-01-25T13:08:59;3.67;;;1.33;;
69260;SDS011;56378;52.404;20.816;2024-01-25T13:11:24;3.73;;;1.33;;
69260;SDS011;56378;52.404;20.816;2024-01-25T13:13:50;4.10;;;0.90;;
69260;SDS011;56378;52.404;20.816;2024-01-25T13:16:16;2.53;;;0.87;;
69260;SDS011;56378;52.404;20.816;2024-01-25T13:18:42;3.40;;;1.00;;
69260;SDS011;56378;52.404;20.816;2024-01-25T13:21:08;4.85;;;1.38;;
69260;SDS011;56378;52.404;20.816;2024-01-25T13:23:34;2.33;;;1.00;;
69260;SDS011;56378;52.404;20.816;2024-01-25T13:26:00;3.22;;;1.27;;
69260;SDS011;56378;52.404;20.816;2024-01-25T13:28:26;3.03;;;0.90;;
69260;SDS011;56378;52.404;20.816;2024-01-25T13:30:52;4.20;;;1.30;;
69260;SDS011;56378;52.404;20.816;2024-01-25T13:33:19;3.63;;;1.00;;
69260;SDS011;56378;52.404;20.816;2024-01-25T13:35:45;4.30;;;1.23;;
69260;SDS011;56378;52.404;20.816;2024-01-25T13:38:10;3.50;;;1.08;;
69260;SDS011;56378;52.404;20.816;2024-01-25T13:40:39;3.15;;;1.17;;
69260;SDS011;56378;52.404;20.816;2024-01-25T13:43:05;3.88;;;1.10;;
69260;SDS011;56378;52.404;20.816;2024-01-25T13:45:31;4.28;;;1.33;;
69260;SDS011;56378;52.404;20.816;2024-01-25T13:47:57;4.28;;;1.40;;
69260;SDS011;56378;52.404;20.816;2024-01-25T13:50:22;3.33;;;1.20;;
69260;SDS011;56378;52.404;20.816;2024-01-25T13:52:48;3.97;;;1.23;;
69260;SDS011;56378;52.404;20.816;2024-01-25T13:55:14;5.57;;;1.40;;
69260;SDS011;56378;52.404;20.816;2024-01-25T13:57:40;4.07;;;1.70;;
69260;SDS011;56378;52.404;20.816;2024-01-25T14:00:05;5.32;;;1.40;;
69260;SDS011;56378;52.404;20.816;2024-01-25T14:02:33;2.58;;;1.15;;
69260;SDS011;56378;52.404;20.816;2024-01-25T14:04:59;3.90;;;1.00;;
69260;SDS011;56378;52.404;20.816;2024-01-25T14:07:25;3.13;;;0.95;;
69260;SDS011;56378;52.404;20.816;2024-01-25T14:09:50;2.42;;;0.98;;
69260;SDS011;56378;52.404;20.816;2024-01-25T14:12:20;2.90;;;0.90;;
69260;SDS011;56378;52.404;20.816;2024-01-25T14:14:46;2.75;;;1.00;;
69260;SDS011;56378;52.404;20.816;2024-01-25T14:17:11;5.07;;;1.10;;
69260;SDS011;56378;52.404;20.816;2024-01-25T14:19:37;3.03;;;1.00;;
69260;SDS011;56378;52.404;20.816;2024-01-25T14:22:03;2.93;;;1.10;;
69260;SDS011;56378;52.404;20.816;2024-01-25T14:24:29;5.50;;;1.95;;
69260;SDS011;56378;52.404;20.816;2024-01-25T14:26:55;5.05;;;1.88;;
69260;SDS011;56378;52.404;20.816;2024-01-25T14:29:21;4.53;;;1.70;;